createdAt,value
2018-02-20T00:00:56.407Z,2.40
2018-02-20T00:03:26.725Z,2.30
2018-02-20T00:05:57.137Z,2.30
2018-02-20T00:08:27.243Z,2.30
2018-02-20T00:10:56.960Z,2.30
2018-02-20T00:13:27.633Z,2.20
2018-02-20T00:15:57.860Z,2.20
2018-02-20T00:18:39.310Z,2.10
2018-02-20T00:21:11.025Z,2.20
2018-02-20T00:23:40.945Z,2.10
2018-02-20T00:26:15.586Z,2.10
2018-02-20T00:28:45.661Z,2.10
2018-02-20T00:31:20.759Z,2.00
2018-02-20T00:33:50.371Z,2.10
2018-02-20T00:36:22.308Z,2.00
2018-02-20T00:38:54.691Z,2.00
2018-02-20T00:41:55.947Z,2.00
2018-02-20T00:44:27.125Z,2.00
2018-02-20T00:46:58.672Z,1.90
2018-02-20T00:49:29.983Z,1.80
2018-02-20T00:51:59.448Z,1.80
2018-02-20T00:54:28.974Z,1.80
2018-02-20T00:56:58.421Z,1.80
2018-02-20T00:59:28.076Z,1.80
2018-02-20T01:01:57.522Z,1.80
2018-02-20T01:04:26.967Z,1.70
2018-02-20T01:07:01.765Z,1.70
2018-02-20T01:09:32.506Z,1.70
2018-02-20T01:12:02.716Z,1.70
2018-02-20T01:14:32.214Z,1.70
2018-02-20T01:17:02.088Z,1.60
2018-02-20T01:19:31.489Z,1.60
2018-02-20T01:22:01.230Z,1.60
2018-02-20T01:24:30.706Z,1.60
2018-02-20T01:27:00.231Z,1.60
2018-02-20T01:29:30.751Z,1.50
2018-02-20T01:32:00.378Z,1.50
2018-02-20T01:34:30.823Z,1.50
2018-02-20T01:37:00.537Z,1.40
2018-02-20T01:39:30.005Z,1.40
2018-02-20T01:42:00.622Z,1.40
2018-02-20T01:44:30.835Z,1.40
2018-02-20T01:47:01.328Z,1.30
2018-02-20T01:49:31.812Z,1.30
2018-02-20T01:52:01.293Z,1.30
2018-02-20T01:54:31.470Z,1.40
2018-02-20T01:57:01.020Z,1.40
2018-02-20T01:59:30.480Z,1.40
2018-02-20T02:01:59.930Z,1.40
2018-02-20T02:04:29.641Z,1.40
2018-02-20T02:06:59.053Z,1.40
2018-02-20T02:09:28.683Z,1.40
2018-02-20T02:11:58.391Z,1.30
2018-02-20T02:14:27.869Z,1.40
2018-02-20T02:16:57.202Z,1.30
2018-02-20T02:19:28.359Z,1.40
2018-02-20T02:21:57.848Z,1.30
2018-02-20T02:24:27.250Z,1.40
2018-02-20T02:26:56.684Z,1.30
2018-02-20T02:29:26.450Z,1.30
2018-02-20T02:31:55.883Z,1.30
2018-02-20T02:34:25.354Z,1.30
2018-02-20T02:36:55.133Z,1.30
2018-02-20T02:39:25.062Z,1.30
2018-02-20T02:41:55.166Z,1.30
2018-02-20T02:44:24.804Z,1.30
2018-02-20T02:46:54.378Z,1.30
2018-02-20T02:49:24.496Z,1.30
2018-02-20T02:51:54.749Z,1.30
2018-02-20T02:54:24.458Z,1.20
2018-02-20T02:56:53.955Z,1.20
2018-02-20T02:59:23.397Z,1.20
2018-02-20T03:01:52.777Z,1.20
2018-02-20T03:04:22.272Z,1.20
2018-02-20T03:06:51.883Z,1.20
2018-02-20T03:09:21.805Z,1.20
2018-02-20T03:11:51.456Z,1.10
2018-02-20T03:14:20.836Z,1.10
2018-02-20T03:16:50.264Z,1.10
2018-02-20T03:19:20.173Z,1.10
2018-02-20T03:21:49.625Z,1.10
2018-02-20T03:24:19.030Z,1.10
2018-02-20T03:26:48.488Z,1.10
2018-02-20T03:29:18.036Z,1.10
2018-02-20T03:31:47.513Z,1.10
2018-02-20T03:34:17.779Z,1.20
2018-02-20T03:36:47.211Z,1.10
2018-02-20T03:39:16.608Z,1.20
2018-02-20T03:41:46.950Z,1.20
2018-02-20T03:44:16.394Z,1.20
2018-02-20T03:46:46.224Z,1.30
2018-02-20T03:49:15.689Z,1.30
2018-02-20T03:51:45.912Z,1.20
2018-02-20T03:54:16.080Z,1.10
2018-02-20T03:56:45.646Z,1.10
2018-02-20T03:59:15.785Z,1.00
2018-02-20T04:01:45.424Z,1.00
2018-02-20T04:04:15.341Z,1.00
2018-02-20T04:06:44.770Z,1.10
2018-02-20T04:09:14.203Z,1.00
2018-02-20T04:11:43.968Z,1.00
2018-02-20T04:14:13.368Z,1.00
2018-02-20T04:16:43.741Z,0.90
2018-02-20T04:19:14.227Z,0.80
2018-02-20T04:21:44.354Z,0.80
2018-02-20T04:24:13.815Z,0.80
2018-02-20T04:26:43.394Z,0.80
2018-02-20T04:29:20.249Z,0.70
2018-02-20T04:31:50.497Z,0.70
2018-02-20T04:34:19.862Z,0.80
2018-02-20T04:36:49.720Z,0.80
2018-02-20T04:39:19.177Z,0.80
2018-02-20T04:41:49.095Z,0.70
2018-02-20T04:44:19.012Z,0.70
2018-02-20T04:46:49.187Z,0.70
2018-02-20T04:49:18.625Z,0.80
2018-02-20T04:51:48.216Z,0.80
2018-02-20T04:54:17.662Z,0.80
2018-02-20T04:56:47.283Z,0.90
2018-02-20T04:59:17.578Z,1.00
2018-02-20T05:01:46.998Z,0.90
2018-02-20T05:04:16.932Z,1.00
2018-02-20T05:06:47.459Z,0.90
2018-02-20T05:09:17.597Z,1.00
2018-02-20T05:11:47.491Z,1.00
2018-02-20T05:14:16.886Z,0.90
2018-02-20T05:16:47.744Z,0.90
2018-02-20T05:19:17.344Z,0.90
2018-02-20T05:21:47.443Z,0.90
2018-02-20T05:24:17.797Z,0.90
2018-02-20T05:26:48.024Z,0.80
2018-02-20T05:29:25.219Z,0.90
2018-02-20T05:32:02.173Z,0.90
2018-02-20T05:34:33.639Z,0.80
2018-02-20T05:37:04.173Z,0.90
2018-02-20T05:39:33.950Z,0.90
2018-02-20T05:42:05.326Z,0.80
2018-02-20T05:44:36.177Z,0.80
2018-02-20T05:47:05.887Z,0.80
2018-02-20T05:49:35.612Z,0.90
2018-02-20T05:52:09.211Z,0.80
2018-02-20T05:54:41.734Z,0.70
2018-02-20T05:57:11.910Z,0.70
2018-02-20T05:59:42.027Z,0.60
2018-02-20T06:02:11.690Z,0.60
2018-02-20T06:04:42.087Z,0.50
2018-02-20T06:07:12.432Z,0.50
2018-02-20T06:09:42.033Z,0.40
2018-02-20T06:12:11.507Z,0.40
2018-02-20T06:14:42.636Z,0.40
2018-02-20T06:17:12.864Z,0.40
2018-02-20T06:19:43.726Z,0.40
2018-02-20T06:22:15.099Z,0.50
2018-02-20T06:24:44.798Z,0.50
2018-02-20T06:27:15.763Z,0.60
2018-02-20T06:29:49.169Z,0.60
2018-02-20T06:32:19.206Z,0.60
2018-02-20T06:34:50.611Z,0.60
2018-02-20T06:37:31.518Z,0.60
2018-02-20T06:40:10.547Z,0.50
2018-02-20T06:42:40.924Z,0.50
2018-02-20T06:45:10.628Z,0.50
2018-02-20T06:47:41.479Z,0.50
2018-02-20T06:50:16.859Z,0.50
2018-02-20T06:52:47.203Z,0.50
2018-02-20T06:55:17.925Z,0.50
2018-02-20T06:57:47.958Z,0.50
2018-02-20T07:00:18.120Z,0.50
2018-02-20T07:02:49.389Z,0.60
2018-02-20T07:05:30.474Z,0.60
2018-02-20T07:08:00.236Z,0.60
2018-02-20T07:10:29.792Z,0.70
2018-02-20T07:12:59.622Z,0.70
2018-02-20T07:15:29.534Z,0.60
2018-02-20T07:17:59.141Z,0.70
2018-02-20T07:20:28.718Z,0.60
2018-02-20T07:23:06.908Z,0.70
2018-02-20T07:25:53.632Z,0.70
2018-02-20T07:28:32.999Z,0.70
2018-02-20T07:31:02.966Z,0.80
2018-02-20T07:33:32.941Z,0.90
2018-02-20T07:36:03.417Z,1.00
2018-02-20T07:38:33.676Z,0.90
2018-02-20T07:41:05.612Z,0.90
2018-02-20T07:43:35.197Z,0.90
2018-02-20T07:46:08.563Z,1.00
2018-02-20T07:48:38.575Z,1.00
2018-02-20T07:51:08.680Z,1.30
2018-02-20T07:53:40.200Z,1.20
2018-02-20T07:56:12.725Z,1.30
2018-02-20T08:32:59.491Z,1.40
2018-02-20T08:35:29.050Z,1.50
2018-02-20T08:37:58.848Z,1.60
2018-02-20T08:40:29.233Z,1.80
2018-02-20T08:42:58.936Z,2.00
2018-02-20T08:45:29.135Z,2.00
2018-02-20T08:47:59.639Z,2.00
2018-02-20T08:50:32.597Z,2.10
2018-02-20T08:53:04.968Z,2.20
2018-02-20T08:55:34.709Z,2.10
2018-02-20T08:58:04.137Z,2.10
2018-02-20T09:00:33.887Z,2.20
2018-02-20T09:03:03.712Z,2.40
2018-02-20T09:05:34.765Z,2.80
2018-02-20T09:08:06.199Z,2.90
2018-02-20T09:10:36.226Z,2.90
2018-02-20T09:13:08.596Z,2.90
2018-02-20T09:15:49.975Z,2.80
2018-02-20T09:18:26.224Z,2.80
2018-02-20T09:20:55.992Z,2.80
2018-02-20T09:23:26.184Z,2.90
2018-02-20T09:25:55.831Z,2.80
2018-02-20T09:28:25.987Z,2.80
2018-02-20T09:30:55.707Z,2.80
2018-02-20T09:33:26.431Z,2.80
2018-02-20T09:35:56.241Z,2.80
2018-02-20T09:38:26.694Z,2.70
2018-02-20T09:41:06.213Z,2.70
2018-02-20T09:43:46.573Z,2.80
2018-02-20T09:46:16.529Z,3.00
2018-02-20T09:48:46.100Z,3.10
2018-02-20T09:51:16.838Z,3.20
2018-02-20T09:53:49.443Z,3.30
2018-02-20T09:56:20.158Z,3.30
2018-02-20T09:58:50.306Z,3.30
2018-02-20T10:01:20.584Z,3.40
2018-02-20T10:03:50.293Z,3.60
2018-02-20T10:06:22.567Z,3.70
2018-02-20T10:08:52.671Z,3.70
2018-02-20T10:11:23.430Z,3.70
2018-02-20T10:13:54.257Z,3.90
2018-02-20T10:16:25.703Z,3.90
2018-02-20T10:18:56.444Z,3.90
2018-02-20T10:21:28.600Z,4.00
2018-02-20T10:24:00.745Z,4.20
2018-02-20T10:26:34.841Z,4.30
2018-02-20T10:29:07.723Z,4.40
2018-02-20T10:31:41.229Z,4.50
2018-02-20T10:34:11.081Z,4.70
2018-02-20T10:36:41.088Z,4.80
2018-02-20T10:39:11.576Z,4.90
2018-02-20T10:41:41.455Z,4.80
2018-02-20T10:44:11.497Z,4.90
2018-02-20T10:46:41.739Z,4.90
2018-02-20T10:49:12.356Z,5.20
2018-02-20T10:51:42.120Z,5.30
2018-02-20T10:54:11.846Z,5.20
2018-02-20T10:56:42.379Z,5.10
2018-02-20T10:59:13.058Z,5.00
2018-02-20T11:01:44.241Z,5.30
2018-02-20T11:04:15.766Z,6.50
2018-02-20T11:06:47.492Z,8.10
2018-02-20T11:09:17.964Z,10.10
2018-02-20T11:11:47.926Z,11.70
2018-02-20T11:14:19.449Z,13.10
2018-02-20T11:16:51.895Z,13.50
2018-02-20T11:19:19.752Z,13.60
2018-02-20T11:21:51.130Z,14.40
2018-02-20T11:24:21.159Z,14.60
2018-02-20T11:26:52.440Z,13.50
2018-02-20T11:29:22.438Z,13.50
2018-02-20T11:31:54.519Z,13.10
2018-02-20T11:34:38.431Z,13.10
2018-02-20T11:37:13.804Z,12.40
2018-02-20T11:39:44.351Z,11.70
2018-02-20T11:42:14.657Z,11.70
2018-02-20T11:44:45.932Z,12.10
2018-02-20T11:47:15.944Z,12.10
2018-02-20T11:49:52.513Z,12.20
2018-02-20T11:52:23.964Z,11.30
2018-02-20T11:54:54.337Z,11.70
2018-02-20T11:57:25.983Z,11.50
2018-02-20T11:59:57.050Z,11.50
2018-02-20T12:02:34.043Z,11.40
2018-02-20T12:05:04.183Z,11.20
2018-02-20T12:07:33.911Z,10.80
2018-02-20T12:10:03.800Z,10.10
2018-02-20T12:12:33.610Z,10.50
2018-02-20T12:15:05.488Z,11.80
2018-02-20T12:17:35.331Z,11.80
2018-02-20T12:20:06.393Z,12.50
2018-02-20T12:22:36.961Z,12.60
2018-02-20T12:25:06.485Z,12.50
2018-02-20T12:27:36.688Z,11.90
2018-02-20T12:30:08.396Z,11.60
2018-02-20T12:32:38.544Z,12.10
2018-02-20T12:35:11.831Z,12.30
2018-02-20T12:37:48.260Z,12.30
2018-02-20T12:40:18.866Z,12.10
2018-02-20T12:42:50.590Z,12.20
2018-02-20T12:45:23.770Z,12.30
2018-02-20T12:47:56.251Z,11.50
2018-02-20T12:50:27.511Z,11.30
2018-02-20T12:52:58.014Z,11.00
2018-02-20T12:55:28.058Z,11.00
2018-02-20T12:57:58.365Z,11.10
2018-02-20T13:00:31.747Z,10.30
2018-02-20T13:03:02.572Z,9.80
2018-02-20T13:05:32.187Z,9.80
2018-02-20T13:08:06.655Z,9.90
2018-02-20T13:11:02.072Z,11.20
2018-02-20T13:13:32.705Z,11.10
2018-02-20T13:16:03.732Z,11.10
2018-02-20T13:18:35.202Z,10.70
2018-02-20T13:21:06.110Z,10.30
2018-02-20T13:23:38.174Z,9.60
2018-02-20T13:26:09.227Z,9.60
2018-02-20T13:28:46.965Z,9.80
2018-02-20T13:31:25.396Z,9.90
2018-02-20T13:33:56.988Z,10.10
2018-02-20T13:36:27.895Z,9.90
2018-02-20T13:38:58.360Z,10.10
2018-02-20T13:41:30.978Z,9.80
2018-02-20T13:44:02.507Z,10.10
2018-02-20T13:46:33.761Z,10.60
2018-02-20T13:49:03.842Z,11.30
2018-02-20T13:51:34.136Z,12.40
2018-02-20T13:54:04.240Z,13.30
2018-02-20T13:56:33.845Z,14.20
2018-02-20T13:59:04.217Z,14.60
2018-02-20T14:01:35.068Z,15.00
2018-02-20T14:04:05.869Z,15.00
2018-02-20T14:06:35.551Z,15.40
2018-02-20T14:09:05.975Z,15.60
2018-02-20T14:11:42.114Z,15.90
2018-02-20T14:14:12.167Z,15.60
2018-02-20T14:16:42.296Z,16.00
2018-02-20T14:19:12.244Z,16.00
2018-02-20T14:21:43.029Z,13.40
2018-02-20T14:24:12.945Z,13.40
2018-02-20T14:26:43.075Z,13.60
2018-02-20T14:29:22.070Z,13.40
2018-02-20T14:32:00.848Z,12.70
2018-02-20T14:37:59.990Z,11.60
2018-02-20T14:40:31.868Z,10.70
2018-02-20T14:43:02.733Z,9.80
2018-02-20T14:45:32.436Z,10.10
2018-02-20T14:48:02.769Z,10.20
2018-02-20T14:50:39.038Z,9.10
2018-02-20T14:53:14.360Z,9.10
2018-02-20T14:55:50.084Z,8.30
2018-02-20T14:58:21.137Z,7.50
2018-02-20T15:00:57.430Z,7.40
2018-02-20T15:03:34.853Z,7.20
2018-02-20T15:06:06.446Z,6.60
2018-02-20T15:08:36.384Z,6.60
2018-02-20T15:11:06.202Z,6.50
2018-02-20T15:13:36.564Z,6.40
2018-02-20T15:16:06.844Z,6.50
2018-02-20T15:18:36.434Z,6.50
2018-02-20T15:21:06.496Z,6.40
2018-02-20T15:23:36.294Z,6.40
2018-02-20T15:26:05.938Z,6.50
2018-02-20T15:28:38.310Z,6.50
2018-02-20T15:31:11.052Z,6.50
2018-02-20T15:33:41.652Z,6.40
2018-02-20T15:36:13.226Z,6.40
2018-02-20T15:38:43.445Z,6.40
2018-02-20T15:41:15.162Z,6.50
2018-02-20T15:43:47.003Z,6.30
2018-02-20T15:46:22.300Z,6.30
2018-02-20T15:48:52.928Z,6.30
2018-02-20T15:51:39.146Z,6.30
2018-02-20T15:54:27.574Z,6.30
2018-02-20T15:57:03.006Z,6.30
2018-02-20T15:59:33.163Z,6.40
2018-02-20T16:02:04.004Z,6.50
2018-02-20T16:04:34.317Z,6.50
2018-02-20T16:07:05.141Z,6.50
2018-02-20T16:09:35.263Z,6.50
2018-02-20T16:12:05.896Z,6.60
2018-02-20T16:14:42.584Z,6.70
2018-02-20T16:17:12.323Z,6.80
2018-02-20T16:19:42.582Z,6.80
2018-02-20T16:22:22.568Z,6.80
2018-02-20T16:25:01.550Z,6.70
2018-02-20T16:27:31.712Z,6.70
2018-02-20T16:30:01.819Z,6.70
2018-02-20T16:32:31.972Z,6.70
2018-02-20T16:35:10.453Z,6.50
2018-02-20T16:37:49.598Z,6.40
2018-02-20T16:40:21.685Z,6.40
2018-02-20T16:42:52.637Z,6.40
2018-02-20T16:45:23.280Z,6.20
2018-02-20T16:47:59.041Z,6.10
2018-02-20T16:50:31.300Z,6.00
2018-02-20T16:53:02.303Z,6.10
2018-02-20T16:55:33.050Z,6.20
2018-02-20T16:59:05.373Z,6.30
2018-02-20T17:01:39.505Z,6.10
2018-02-20T17:04:12.618Z,5.90
2018-02-20T17:06:43.311Z,5.90
2018-02-20T17:09:13.446Z,5.80
2018-02-20T17:11:43.362Z,6.00
2018-02-20T17:14:16.319Z,6.10
2018-02-20T17:16:50.631Z,6.10
2018-02-20T17:19:22.287Z,6.10
2018-02-20T17:21:53.867Z,6.00
2018-02-20T17:24:39.577Z,6.00
2018-02-20T17:27:15.011Z,6.00
2018-02-20T17:29:52.427Z,6.00
2018-02-20T17:32:22.532Z,6.00
2018-02-20T17:34:55.369Z,6.00
2018-02-20T17:37:25.933Z,6.00
2018-02-20T17:39:56.123Z,6.00
2018-02-20T17:42:25.929Z,5.90
2018-02-20T17:44:56.440Z,5.80
2018-02-20T17:47:27.343Z,5.80
2018-02-20T17:49:58.295Z,5.90
2018-02-20T17:52:37.294Z,5.90
2018-02-20T17:55:14.019Z,5.90
2018-02-20T17:57:43.812Z,5.90
2018-02-20T18:00:14.251Z,5.70
2018-02-20T18:02:46.304Z,5.70
2018-02-20T18:05:18.452Z,5.70
2018-02-20T18:07:50.444Z,5.70
2018-02-20T18:10:28.118Z,5.70
2018-02-20T18:13:47.902Z,5.70
2018-02-20T18:16:44.839Z,5.60
2018-02-20T18:19:16.377Z,5.50
2018-02-20T19:53:00.600Z,4.70
2018-02-20T19:55:32.641Z,4.70
2018-02-20T19:58:02.574Z,4.90
2018-02-20T20:00:46.887Z,4.90
2018-02-20T20:03:28.027Z,5.00
2018-02-20T20:05:59.406Z,5.00
2018-02-20T20:08:41.719Z,4.90
2018-02-20T20:11:12.821Z,4.80
2018-02-20T20:13:45.956Z,4.70
2018-02-20T20:16:34.709Z,4.70
2018-02-20T20:19:06.906Z,4.70
2018-02-20T20:21:41.294Z,4.60
2018-02-20T20:24:11.645Z,4.50
2018-02-20T20:26:42.331Z,4.50
2018-02-20T20:29:17.173Z,4.40
2018-02-20T20:31:48.713Z,4.40
2018-02-20T20:34:18.907Z,4.40
2018-02-20T20:36:49.016Z,4.40
2018-02-20T20:39:19.285Z,4.30
2018-02-20T20:41:51.253Z,4.20
2018-02-20T20:44:21.161Z,4.20
2018-02-20T20:46:51.395Z,4.20
2018-02-20T20:49:21.819Z,4.10
2018-02-20T20:51:53.036Z,4.00
2018-02-20T20:54:23.602Z,4.00
2018-02-20T20:56:59.541Z,3.90
2018-02-20T20:59:33.711Z,3.90
2018-02-20T21:02:12.443Z,3.80
2018-02-20T21:04:42.375Z,3.80
2018-02-20T21:07:24.073Z,3.90
2018-02-20T21:09:55.886Z,3.80
2018-02-20T21:12:25.616Z,3.90
2018-02-20T21:15:01.418Z,3.60
2018-02-20T21:17:33.627Z,3.60
2018-02-20T21:22:48.769Z,3.60
2018-02-20T21:25:23.337Z,3.70
2018-02-20T21:27:54.573Z,3.70
2018-02-20T21:30:24.313Z,3.70
2018-02-20T21:32:54.798Z,3.80
2018-02-20T21:35:25.004Z,3.70
2018-02-20T21:37:56.021Z,3.80
2018-02-20T21:40:28.433Z,3.90
2018-02-20T21:42:58.519Z,3.80
2018-02-20T21:45:36.047Z,3.80
2018-02-20T21:48:13.903Z,3.70
2018-02-20T21:50:48.316Z,3.80
2018-02-20T21:53:24.282Z,3.80
2018-02-20T21:55:59.668Z,3.70
2018-02-20T21:58:39.998Z,3.70
2018-02-20T22:01:15.559Z,3.80
2018-02-20T22:03:54.309Z,3.80
2018-02-20T22:06:31.164Z,3.70
2018-02-20T22:09:07.830Z,3.50
2018-02-20T22:11:48.832Z,3.40
2018-02-20T22:14:18.561Z,3.30
2018-02-20T22:16:48.727Z,3.40
2018-02-20T22:19:18.273Z,3.40
2018-02-20T22:21:49.473Z,3.30
2018-02-20T22:24:26.062Z,3.40
2018-02-20T22:26:57.532Z,3.20
2018-02-20T22:29:30.442Z,3.30
2018-02-20T22:32:04.598Z,3.30
2018-02-20T22:34:38.715Z,3.20
2018-02-20T22:37:09.152Z,3.20
2018-02-20T22:39:39.127Z,3.30
2018-02-20T22:42:09.709Z,3.20
2018-02-20T22:44:42.901Z,3.10
2018-02-20T22:47:15.626Z,3.10
2018-02-20T22:49:50.041Z,3.00
2018-02-20T22:52:19.859Z,3.00
2018-02-20T22:54:53.473Z,2.70
2018-02-20T22:57:25.983Z,2.70
2018-02-20T22:59:58.522Z,2.70
2018-02-20T23:02:34.326Z,2.70
2018-02-20T23:05:13.935Z,2.70
2018-02-20T23:07:46.702Z,2.70
2018-02-20T23:10:16.830Z,2.60
2018-02-20T23:12:54.090Z,2.50
2018-02-20T23:15:24.706Z,2.50
2018-02-20T23:17:57.133Z,2.40
2018-02-20T23:20:29.176Z,2.30
2018-02-20T23:23:00.605Z,2.30
2018-02-20T23:25:30.988Z,2.30
2018-02-20T23:28:00.709Z,2.30
2018-02-20T23:30:31.394Z,2.20
2018-02-20T23:33:02.136Z,2.20
2018-02-20T23:35:32.707Z,2.20
2018-02-20T23:38:02.633Z,2.20
2018-02-20T23:40:32.471Z,2.20
2018-02-20T23:43:02.526Z,2.10
2018-02-20T23:45:32.413Z,2.00
2018-02-20T23:48:04.868Z,2.00
2018-02-20T23:50:37.022Z,1.90
2018-02-20T23:53:09.145Z,1.90
2018-02-20T23:55:41.546Z,1.80
2018-02-20T23:58:11.501Z,1.80
